Time;durP1;ratioP1;P1;durP2;ratioP2;P2;SDS_P1;SDS_P2;PMS_P1;PMS_P2;Temp;Humidity;BMP_temperature;BMP_pressure;BME280_temperature;BME280_humidity;BME280_pressure;Samples;Min_cycle;Max_cycle;Signal;HPM_P1;HPM_P2
2021/09/21 00:00:20;;;;;;;;;;;8.30;99.90;;;;;;5058086;28;19904;-75
2021/09/21 00:02:46;;;;;;;;;;;8.20;99.90;;;;;;5076748;22;20526;-74
2021/09/21 00:05:11;;;;;;;;;;;8.20;99.90;;;;;;5098602;28;19912;-74
2021/09/21 00:07:37;;;;;;;;;;;8.20;99.90;;;;;;5079479;28;19903;-74
2021/09/21 00:10:03;;;;;;;;;;;8.20;99.90;;;;;;5097864;28;19951;-76
2021/09/21 00:12:29;;;;;;;;;;;8.20;99.90;;;;;;5097473;28;19951;-76
2021/09/21 00:14:54;;;;;;;;;;;8.20;99.90;;;;;;5097527;28;19947;-74
2021/09/21 00:17:20;;;;;;;;;;;8.20;99.90;;;;;;5079198;28;19947;-74
2021/09/21 00:19:45;;;;;;;;;;;8.20;99.90;;;;;;5079404;28;20281;-74
2021/09/21 00:22:10;;;;;;;;;;;8.10;99.90;;;;;;5097398;28;20013;-74
2021/09/21 00:24:36;;;;;;;;;;;8.10;99.90;;;;;;5079113;28;19973;-73
2021/09/21 00:27:02;;;;;;;;;;;8.00;99.90;;;;;;5097415;28;19904;-75
2021/09/21 00:29:27;;;;;;;;;;;8.00;99.90;;;;;;5097718;28;19965;-76
2021/09/21 00:31:59;;;;;;;;;;;8.00;99.90;;;;;;5097239;28;19957;-73
2021/09/21 00:34:27;;;;;;;;;;;7.90;99.90;;;;;;5078770;28;19904;-75
2021/09/21 00:36:53;;;;;;;;;;;7.90;99.90;;;;;;5097051;28;19904;-75
2021/09/21 00:39:19;;;;;;;;;;;7.80;99.90;;;;;;5079094;28;19911;-73
2021/09/21 00:41:45;;;;;;;;;;;7.80;99.90;;;;;;5078875;28;19994;-75
2021/09/21 00:44:10;;;;;;;;;;;7.80;99.90;;;;;;5096833;28;19904;-73
2021/09/21 00:46:36;;;;;;;;;;;7.80;99.90;;;;;;5096944;28;19911;-75
2021/09/21 00:49:01;;;;;;;;;;;7.80;99.90;;;;;;5096802;28;19911;-75
2021/09/21 00:51:27;;;;;;;;;;;7.80;99.90;;;;;;5096853;28;19986;-75
2021/09/21 00:53:53;;;;;;;;;;;7.70;99.90;;;;;;5096307;28;20002;-74
2021/09/21 00:56:19;;;;;;;;;;;7.60;99.90;;;;;;5078226;28;19999;-75
2021/09/21 00:58:44;;;;;;;;;;;7.60;99.90;;;;;;5097249;28;19943;-75
2021/09/21 01:01:10;;;;;;;;;;;7.60;99.90;;;;;;5096831;28;19904;-75
2021/09/21 01:03:35;;;;;;;;;;;7.70;99.90;;;;;;5096407;28;19961;-73
2021/09/21 01:06:01;;;;;;;;;;;7.60;99.90;;;;;;5096523;28;20424;-75
2021/09/21 01:08:27;;;;;;;;;;;7.60;99.90;;;;;;5096464;28;19904;-74
2021/09/21 01:10:52;;;;;;;;;;;7.60;99.90;;;;;;5096377;28;19911;-74
2021/09/21 01:13:18;;;;;;;;;;;7.50;99.90;;;;;;5090349;22;19911;-73
2021/09/21 01:15:43;;;;;;;;;;;7.50;99.90;;;;;;5096107;28;19920;-75
2021/09/21 01:18:09;;;;;;;;;;;7.50;99.90;;;;;;5096599;28;19904;-75
2021/09/21 01:20:35;;;;;;;;;;;7.40;99.90;;;;;;5096491;28;19903;-75
2021/09/21 01:23:01;;;;;;;;;;;7.50;99.90;;;;;;5096113;28;20002;-76
2021/09/21 01:25:27;;;;;;;;;;;7.40;99.90;;;;;;5096177;28;19905;-75
2021/09/21 01:27:55;;;;;;;;;;;7.40;99.90;;;;;;5078705;28;19927;-75
2021/09/21 01:30:20;;;;;;;;;;;7.40;99.90;;;;;;5079421;28;19904;-74
2021/09/21 01:32:46;;;;;;;;;;;7.30;99.90;;;;;;5096231;28;19953;-75
2021/09/21 01:35:12;;;;;;;;;;;7.40;99.90;;;;;;5095741;28;20373;-75
2021/09/21 01:37:39;;;;;;;;;;;7.40;99.90;;;;;;5095856;28;19908;-74
2021/09/21 01:40:04;;;;;;;;;;;7.40;99.90;;;;;;5096117;28;19926;-75
2021/09/21 01:42:30;;;;;;;;;;;7.40;99.90;;;;;;5077693;28;19994;-75
2021/09/21 01:44:55;;;;;;;;;;;7.40;99.90;;;;;;5096886;28;19904;-74
2021/09/21 01:47:21;;;;;;;;;;;7.30;99.90;;;;;;5095774;28;19908;-76
2021/09/21 01:50:32;;;;;;;;;;;7.30;99.90;;;;;;5077551;28;19915;-76
2021/09/21 01:52:42;;;;;;;;;;;7.30;99.90;;;;;;5081987;28;19904;-76
2021/09/21 01:55:14;;;;;;;;;;;7.30;99.90;;;;;;5096101;28;19904;-76
2021/09/21 02:00:24;;;;;;;;;;;7.30;99.90;;;;;;5095882;28;20281;-74
2021/09/21 02:02:49;;;;;;;;;;;7.30;99.90;;;;;;5095799;28;19904;-74
2021/09/21 02:05:15;;;;;;;;;;;7.30;99.90;;;;;;5095570;28;19904;-75
2021/09/21 02:07:40;;;;;;;;;;;7.30;99.90;;;;;;5095812;28;19908;-75
2021/09/21 02:10:06;;;;;;;;;;;7.30;99.90;;;;;;5095648;28;19904;-75
2021/09/21 02:12:32;;;;;;;;;;;7.30;99.90;;;;;;5095166;28;19962;-75
2021/09/21 02:15:00;;;;;;;;;;;7.30;99.90;;;;;;5077151;28;19951;-75
2021/09/21 02:17:25;;;;;;;;;;;7.20;99.90;;;;;;5095126;28;19904;-74
2021/09/21 02:19:53;;;;;;;;;;;7.20;99.90;;;;;;5095128;28;19922;-76
2021/09/21 02:22:19;;;;;;;;;;;7.10;99.90;;;;;;5095625;28;20317;-74
2021/09/21 02:24:44;;;;;;;;;;;7.10;99.90;;;;;;5076888;28;19904;-75
2021/09/21 02:27:09;;;;;;;;;;;7.10;99.90;;;;;;5095245;28;20273;-73
2021/09/21 02:29:35;;;;;;;;;;;7.10;99.90;;;;;;5076807;28;19904;-74
2021/09/21 02:32:01;;;;;;;;;;;7.10;99.90;;;;;;5094964;28;19957;-75
2021/09/21 02:34:26;;;;;;;;;;;7.00;99.90;;;;;;5094890;28;20389;-76
2021/09/21 02:36:52;;;;;;;;;;;7.00;99.90;;;;;;5076717;28;19911;-74
2021/09/21 02:39:18;;;;;;;;;;;7.00;99.90;;;;;;5095153;28;20049;-74
2021/09/21 02:41:44;;;;;;;;;;;7.00;99.90;;;;;;5076499;28;19965;-74
2021/09/21 02:44:10;;;;;;;;;;;7.00;99.90;;;;;;5076536;28;19955;-74
2021/09/21 02:46:35;;;;;;;;;;;7.00;99.90;;;;;;5076452;28;19904;-73
2021/09/21 02:49:01;;;;;;;;;;;7.00;99.90;;;;;;5094796;28;19922;-73
2021/09/21 02:51:26;;;;;;;;;;;7.00;99.90;;;;;;5095021;28;19904;-74
2021/09/21 02:53:52;;;;;;;;;;;7.00;99.90;;;;;;5076291;28;19997;-73
2021/09/21 02:56:17;;;;;;;;;;;7.00;99.90;;;;;;5076184;28;19912;-71
2021/09/21 02:58:42;;;;;;;;;;;7.00;99.90;;;;;;5094845;28;19904;-74
2021/09/21 03:01:09;;;;;;;;;;;7.10;99.90;;;;;;5094681;28;19904;-74
2021/09/21 03:03:43;;;;;;;;;;;7.10;99.90;;;;;;5076246;28;19986;-76
2021/09/21 03:06:18;;;;;;;;;;;7.10;99.90;;;;;;5094927;28;20254;-75
2021/09/21 03:08:44;;;;;;;;;;;7.10;99.90;;;;;;5094290;28;19907;-74
2021/09/21 03:11:20;;;;;;;;;;;7.10;99.90;;;;;;5076346;28;19904;-74
2021/09/21 03:18:56;;;;;;;;;;;6.90;99.90;;;;;;5094515;28;19911;-74
2021/09/21 03:21:22;;;;;;;;;;;6.90;99.90;;;;;;5075881;28;19904;-75
2021/09/21 03:23:47;;;;;;;;;;;6.80;99.90;;;;;;5076392;28;19910;-74
2021/09/21 03:26:13;;;;;;;;;;;6.80;99.90;;;;;;5094034;28;19904;-74
2021/09/21 03:28:38;;;;;;;;;;;6.80;99.90;;;;;;5094336;28;19911;-74
2021/09/21 03:31:04;;;;;;;;;;;6.80;99.90;;;;;;5075967;28;19939;-75
2021/09/21 03:33:29;;;;;;;;;;;6.80;99.90;;;;;;5093889;28;19904;-74
2021/09/21 03:35:55;;;;;;;;;;;6.70;99.90;;;;;;5083202;22;20282;-74
2021/09/21 03:38:21;;;;;;;;;;;6.70;99.90;;;;;;5087075;23;19920;-74
2021/09/21 03:40:47;;;;;;;;;;;6.70;99.90;;;;;;5076209;28;20342;-74
2021/09/21 03:43:13;;;;;;;;;;;6.70;99.90;;;;;;5075749;28;20274;-73
2021/09/21 03:45:39;;;;;;;;;;;6.60;99.90;;;;;;5094014;28;19904;-73
2021/09/21 03:48:06;;;;;;;;;;;6.60;99.90;;;;;;5075721;28;19904;-73
2021/09/21 03:50:32;;;;;;;;;;;6.60;99.90;;;;;;5075928;28;19904;-73
2021/09/21 03:52:58;;;;;;;;;;;6.50;99.90;;;;;;5094259;28;19904;-73
2021/09/21 03:55:23;;;;;;;;;;;6.50;99.90;;;;;;5093828;28;19916;-74
2021/09/21 03:57:49;;;;;;;;;;;6.40;99.90;;;;;;5093916;28;19904;-74
2021/09/21 04:00:15;;;;;;;;;;;6.50;99.90;;;;;;5093901;28;19904;-73
2021/09/21 04:02:40;;;;;;;;;;;6.40;99.90;;;;;;5075447;28;19904;-73
2021/09/21 04:05:06;;;;;;;;;;;6.40;99.90;;;;;;5093656;28;20376;-73
2021/09/21 04:07:32;;;;;;;;;;;6.30;99.90;;;;;;5072331;28;19939;-74
2021/09/21 04:09:57;;;;;;;;;;;6.30;99.90;;;;;;5093683;28;19911;-73
2021/09/21 04:12:22;;;;;;;;;;;6.30;99.90;;;;;;5093727;28;19908;-74
2021/09/21 04:14:48;;;;;;;;;;;6.30;99.90;;;;;;5077487;22;20337;-73
2021/09/21 04:17:13;;;;;;;;;;;6.30;99.90;;;;;;5053572;28;20402;-75
2021/09/21 04:19:39;;;;;;;;;;;6.20;99.90;;;;;;5035588;28;20285;-75
2021/09/21 04:22:06;;;;;;;;;;;6.20;99.90;;;;;;5053249;28;20321;-75
2021/09/21 04:24:32;;;;;;;;;;;6.20;99.90;;;;;;5035342;28;20004;-72
2021/09/21 04:26:58;;;;;;;;;;;6.30;99.90;;;;;;5053277;28;19940;-74
2021/09/21 04:29:24;;;;;;;;;;;6.20;99.90;;;;;;5037418;28;20042;-74
2021/09/21 04:31:52;;;;;;;;;;;6.20;99.90;;;;;;5057009;28;19908;-72
2021/09/21 04:34:17;;;;;;;;;;;6.20;99.90;;;;;;5057126;28;19905;-74
2021/09/21 04:36:43;;;;;;;;;;;6.20;99.90;;;;;;5038902;28;19915;-73
2021/09/21 04:39:08;;;;;;;;;;;6.10;99.90;;;;;;5056901;28;19928;-73
2021/09/21 04:41:34;;;;;;;;;;;6.10;99.90;;;;;;5056959;28;19912;-74
2021/09/21 04:43:59;;;;;;;;;;;6.10;99.90;;;;;;5056680;28;19905;-74
2021/09/21 04:46:25;;;;;;;;;;;6.10;99.90;;;;;;5038944;28;20380;-75
2021/09/21 04:48:51;;;;;;;;;;;6.10;99.90;;;;;;5056713;28;19905;-73
2021/09/21 04:51:16;;;;;;;;;;;6.10;99.90;;;;;;5056870;28;19905;-72
2021/09/21 04:53:41;;;;;;;;;;;6.10;99.90;;;;;;5038570;28;19905;-73
2021/09/21 04:56:07;;;;;;;;;;;6.10;99.90;;;;;;5056453;28;19909;-74
2021/09/21 04:58:32;;;;;;;;;;;6.10;99.90;;;;;;5038545;28;19965;-74
2021/09/21 05:00:58;;;;;;;;;;;6.00;99.90;;;;;;5057060;28;19912;-73
2021/09/21 05:03:23;;;;;;;;;;;6.00;99.90;;;;;;5056302;28;19904;-74
2021/09/21 05:05:49;;;;;;;;;;;6.00;99.90;;;;;;5038557;28;19909;-74
2021/09/21 05:08:15;;;;;;;;;;;6.00;99.90;;;;;;5038348;28;20382;-74
2021/09/21 05:10:42;;;;;;;;;;;5.90;99.90;;;;;;5056598;28;20001;-73
2021/09/21 05:13:07;;;;;;;;;;;5.90;99.90;;;;;;5054720;28;19905;-74
2021/09/21 05:15:32;;;;;;;;;;;5.90;99.90;;;;;;5056214;28;19911;-74
2021/09/21 05:17:58;;;;;;;;;;;5.80;99.90;;;;;;5038137;28;19915;-73
2021/09/21 05:20:24;;;;;;;;;;;5.80;99.90;;;;;;5056122;28;20324;-74
2021/09/21 05:22:53;;;;;;;;;;;5.80;99.90;;;;;;5055978;28;19959;-74
2021/09/21 05:25:19;;;;;;;;;;;5.80;99.90;;;;;;5056015;28;19905;-73
2021/09/21 05:27:44;;;;;;;;;;;5.80;99.90;;;;;;5055890;28;19955;-72
2021/09/21 05:30:10;;;;;;;;;;;5.80;99.90;;;;;;5037987;28;19919;-72
2021/09/21 05:32:36;;;;;;;;;;;5.80;99.90;;;;;;5055807;28;19955;-74
2021/09/21 05:35:01;;;;;;;;;;;5.90;99.90;;;;;;5055871;28;19908;-72
2021/09/21 05:37:30;;;;;;;;;;;5.90;99.90;;;;;;5038382;28;19905;-74
2021/09/21 05:39:55;;;;;;;;;;;6.00;99.90;;;;;;5037982;28;20003;-73
2021/09/21 05:42:21;;;;;;;;;;;6.00;99.90;;;;;;5055451;28;19908;-72
2021/09/21 05:44:46;;;;;;;;;;;6.00;99.90;;;;;;5055691;28;19905;-74
2021/09/21 05:47:12;;;;;;;;;;;6.10;99.90;;;;;;5055813;28;19905;-75
2021/09/21 05:49:38;;;;;;;;;;;6.10;99.90;;;;;;5055601;28;19909;-75
2021/09/21 05:52:04;;;;;;;;;;;6.20;99.90;;;;;;5055601;28;20277;-73
2021/09/21 05:54:30;;;;;;;;;;;6.20;99.90;;;;;;5055362;28;19918;-73
2021/09/21 05:56:55;;;;;;;;;;;6.20;99.90;;;;;;5037576;28;19908;-76
2021/09/21 05:59:21;;;;;;;;;;;6.30;99.90;;;;;;5037527;28;19947;-74
2021/09/21 06:01:47;;;;;;;;;;;6.30;99.90;;;;;;5055377;28;19908;-73
2021/09/21 06:04:13;;;;;;;;;;;6.40;99.90;;;;;;5055900;28;20320;-75
2021/09/21 06:06:38;;;;;;;;;;;6.50;99.90;;;;;;5037171;28;19966;-73
2021/09/21 06:09:04;;;;;;;;;;;6.60;99.90;;;;;;5037624;28;19963;-72
2021/09/21 06:11:33;;;;;;;;;;;6.70;99.90;;;;;;5055320;28;19912;-72
2021/09/21 06:13:59;;;;;;;;;;;6.80;99.90;;;;;;5054408;28;19913;-72
2021/09/21 06:16:25;;;;;;;;;;;6.90;99.90;;;;;;5054855;28;20366;-72
2021/09/21 06:18:51;;;;;;;;;;;7.00;99.90;;;;;;5036391;28;20047;-74
2021/09/21 06:21:16;;;;;;;;;;;7.20;99.90;;;;;;5055011;28;19905;-72
2021/09/21 06:23:42;;;;;;;;;;;7.20;99.90;;;;;;5054947;28;19912;-72
2021/09/21 06:26:11;;;;;;;;;;;7.50;99.90;;;;;;5037056;28;19905;-72
2021/09/21 06:28:39;;;;;;;;;;;7.60;99.90;;;;;;5037252;28;19911;-72
2021/09/21 06:31:04;;;;;;;;;;;7.80;99.90;;;;;;5055627;28;19905;-74
2021/09/21 06:33:30;;;;;;;;;;;8.00;99.90;;;;;;5055084;28;20305;-73
2021/09/21 06:35:59;;;;;;;;;;;8.10;99.90;;;;;;5054703;28;20358;-73
2021/09/21 06:38:24;;;;;;;;;;;8.20;99.90;;;;;;5054983;28;19905;-74
2021/09/21 06:40:50;;;;;;;;;;;8.30;99.90;;;;;;5055200;28;20269;-75
2021/09/21 06:43:15;;;;;;;;;;;8.40;99.90;;;;;;5055246;28;19991;-74
2021/09/21 06:45:42;;;;;;;;;;;8.60;99.90;;;;;;5054673;28;19927;-74
2021/09/21 06:48:07;;;;;;;;;;;8.70;99.90;;;;;;5054801;28;19905;-77
2021/09/21 06:50:33;;;;;;;;;;;8.90;99.90;;;;;;5036776;28;19904;-76
2021/09/21 06:52:58;;;;;;;;;;;9.00;99.90;;;;;;5053586;28;20255;-74
2021/09/21 06:55:24;;;;;;;;;;;9.20;99.90;;;;;;5054454;28;19909;-72
2021/09/21 06:57:50;;;;;;;;;;;9.30;99.90;;;;;;5054130;28;20374;-72
2021/09/21 07:00:16;;;;;;;;;;;9.40;99.90;;;;;;5054218;28;19905;-75
2021/09/21 07:02:46;;;;;;;;;;;9.60;99.90;;;;;;5053973;28;20377;-75
2021/09/21 07:05:11;;;;;;;;;;;9.80;99.90;;;;;;5036148;28;19908;-73
2021/09/21 07:07:42;;;;;;;;;;;10.00;99.90;;;;;;5054033;28;20377;-76
2021/09/21 07:10:07;;;;;;;;;;;10.20;99.90;;;;;;5054176;28;19995;-74
2021/09/21 07:12:33;;;;;;;;;;;10.40;99.90;;;;;;5053799;28;20331;-72
2021/09/21 07:14:59;;;;;;;;;;;10.80;99.90;;;;;;5053701;28;19916;-74
2021/09/21 07:17:24;;;;;;;;;;;10.80;99.90;;;;;;5067512;22;19967;-73
2021/09/21 07:19:50;;;;;;;;;;;11.00;99.90;;;;;;5054101;28;19905;-76
2021/09/21 07:22:15;;;;;;;;;;;11.20;99.90;;;;;;5035994;28;19909;-75
2021/09/21 07:24:41;;;;;;;;;;;11.40;99.90;;;;;;5053755;28;19912;-76
2021/09/21 07:27:06;;;;;;;;;;;11.60;99.90;;;;;;5035835;28;19954;-77
2021/09/21 07:29:31;;;;;;;;;;;11.70;99.90;;;;;;5054196;28;19911;-72
2021/09/21 07:31:57;;;;;;;;;;;11.90;99.90;;;;;;5036036;28;19959;-75
2021/09/21 07:34:22;;;;;;;;;;;12.00;99.90;;;;;;5035712;28;19905;-74
2021/09/21 07:36:51;;;;;;;;;;;12.10;99.90;;;;;;5053560;28;19912;-74
2021/09/21 07:39:17;;;;;;;;;;;12.20;99.90;;;;;;5053623;28;19905;-73
2021/09/21 07:41:43;;;;;;;;;;;12.30;99.90;;;;;;5053483;28;19912;-76
2021/09/21 07:44:09;;;;;;;;;;;12.30;99.90;;;;;;5053464;28;19905;-77
2021/09/21 07:46:35;;;;;;;;;;;12.40;99.90;;;;;;5053563;28;19954;-75
2021/09/21 07:49:00;;;;;;;;;;;12.50;99.90;;;;;;5053467;28;20332;-76
2021/09/21 07:51:25;;;;;;;;;;;12.70;99.90;;;;;;5035738;28;19926;-77
2021/09/21 07:53:51;;;;;;;;;;;12.80;99.90;;;;;;5053401;28;19967;-74
2021/09/21 07:56:16;;;;;;;;;;;12.90;99.90;;;;;;5053840;28;19963;-75
2021/09/21 07:58:42;;;;;;;;;;;13.00;99.90;;;;;;5053914;28;20003;-74
2021/09/21 08:01:07;;;;;;;;;;;13.10;99.90;;;;;;5053407;28;20351;-74
2021/09/21 08:03:33;;;;;;;;;;;13.40;99.90;;;;;;5035895;28;19912;-74
2021/09/21 08:05:58;;;;;;;;;;;13.50;99.90;;;;;;5057396;28;19928;-74
2021/09/21 08:08:24;;;;;;;;;;;13.60;99.90;;;;;;5039456;28;19996;-74
2021/09/21 08:10:49;;;;;;;;;;;13.80;99.90;;;;;;5057281;28;19951;-76
2021/09/21 08:13:16;;;;;;;;;;;13.90;99.90;;;;;;5057134;28;19904;-76
2021/09/21 08:15:41;;;;;;;;;;;14.00;99.90;;;;;;5039154;28;20374;-74
2021/09/21 08:18:07;;;;;;;;;;;14.10;99.90;;;;;;5039178;28;19908;-74
2021/09/21 08:20:33;;;;;;;;;;;14.30;99.90;;;;;;5039197;28;19909;-74
2021/09/21 08:22:59;;;;;;;;;;;14.50;99.90;;;;;;5057208;28;20366;-74
2021/09/21 08:25:24;;;;;;;;;;;14.50;99.90;;;;;;5056907;28;19958;-74
2021/09/21 08:27:50;;;;;;;;;;;14.60;99.90;;;;;;5056933;28;19911;-77
2021/09/21 08:30:17;;;;;;;;;;;14.60;99.90;;;;;;5039012;28;19905;-73
2021/09/21 08:32:43;;;;;;;;;;;14.70;99.90;;;;;;5038887;28;19905;-73
2021/09/21 08:35:09;;;;;;;;;;;14.80;99.90;;;;;;5056723;28;19909;-74
2021/09/21 08:37:34;;;;;;;;;;;14.90;99.90;;;;;;5038879;28;20003;-73
2021/09/21 08:40:00;;;;;;;;;;;14.90;99.90;;;;;;5056717;28;19912;-73
2021/09/21 08:42:25;;;;;;;;;;;14.90;99.90;;;;;;5038784;28;20333;-74
2021/09/21 08:44:54;;;;;;;;;;;15.00;99.90;;;;;;5056250;28;19954;-74
2021/09/21 08:47:20;;;;;;;;;;;14.90;99.90;;;;;;5056197;28;19927;-74
2021/09/21 08:49:46;;;;;;;;;;;15.00;99.90;;;;;;5056786;28;19994;-74
2021/09/21 08:52:12;;;;;;;;;;;15.10;99.90;;;;;;5056516;28;19904;-74
2021/09/21 08:54:37;;;;;;;;;;;15.10;99.90;;;;;;5056256;28;20281;-74
2021/09/21 08:57:03;;;;;;;;;;;15.30;99.90;;;;;;5056183;28;19909;-74
2021/09/21 08:59:32;;;;;;;;;;;15.40;99.90;;;;;;5056377;28;19905;-75
2021/09/21 09:02:03;;;;;;;;;;;15.50;99.90;;;;;;5056292;28;20273;-72
2021/09/21 09:04:30;;;;;;;;;;;15.60;99.90;;;;;;5038438;28;19905;-73
2021/09/21 09:06:56;;;;;;;;;;;15.70;99.90;;;;;;5056148;28;19904;-74
2021/09/21 09:09:23;;;;;;;;;;;15.90;99.90;;;;;;5056073;28;19995;-73
2021/09/21 09:11:50;;;;;;;;;;;16.10;99.90;;;;;;5056151;28;19905;-74
2021/09/21 09:14:21;;;;;;;;;;;16.30;99.90;;;;;;5055966;28;19908;-75
2021/09/21 09:16:51;;;;;;;;;;;16.30;99.90;;;;;;5054724;28;20370;-72
2021/09/21 09:19:16;;;;;;;;;;;16.50;99.90;;;;;;5055839;28;19904;-74
2021/09/21 09:21:43;;;;;;;;;;;16.60;99.90;;;;;;5037940;28;20391;-76
2021/09/21 09:24:09;;;;;;;;;;;16.70;99.90;;;;;;5056225;28;20282;-75
2021/09/21 09:26:36;;;;;;;;;;;16.70;99.90;;;;;;5055741;28;19905;-76
2021/09/21 09:29:01;;;;;;;;;;;16.70;97.80;;;;;;5055759;28;19909;-74
2021/09/21 09:31:31;;;;;;;;;;;16.80;97.20;;;;;;5055696;28;19905;-73
2021/09/21 09:34:04;;;;;;;;;;;16.90;96.50;;;;;;5055617;28;19905;-72
2021/09/21 09:36:30;;;;;;;;;;;17.10;96.10;;;;;;5055490;28;19992;-75
2021/09/21 09:38:59;;;;;;;;;;;17.20;92.40;;;;;;5055842;28;19994;-75
2021/09/21 09:41:34;;;;;;;;;;;17.20;89.70;;;;;;5055620;28;19950;-77
2021/09/21 09:44:04;;;;;;;;;;;17.10;87.20;;;;;;5056271;28;19905;-74
2021/09/21 09:46:39;;;;;;;;;;;17.10;88.10;;;;;;5055546;28;19905;-73
2021/09/21 09:49:05;;;;;;;;;;;17.20;87.60;;;;;;5055539;28;19908;-73
2021/09/21 09:51:30;;;;;;;;;;;17.20;81.60;;;;;;5055418;28;19911;-74
2021/09/21 09:53:55;;;;;;;;;;;17.30;80.60;;;;;;5073935;22;19924;-74
2021/09/21 09:56:21;;;;;;;;;;;17.40;78.00;;;;;;5095829;28;19951;-74
2021/09/21 09:58:46;;;;;;;;;;;17.40;78.80;;;;;;5107030;22;19931;-73
2021/09/21 10:01:12;;;;;;;;;;;17.40;75.00;;;;;;5095783;28;19951;-72
2021/09/21 10:03:40;;;;;;;;;;;17.30;77.80;;;;;;5095291;28;19907;-74
2021/09/21 10:06:06;;;;;;;;;;;17.30;75.10;;;;;;5095428;28;19904;-75
2021/09/21 10:08:31;;;;;;;;;;;17.40;73.50;;;;;;5095535;28;19957;-75
2021/09/21 10:10:57;;;;;;;;;;;17.50;72.30;;;;;;5077045;28;19904;-75
2021/09/21 10:13:23;;;;;;;;;;;17.50;72.50;;;;;;5095141;28;19999;-76
2021/09/21 10:15:49;;;;;;;;;;;17.60;74.10;;;;;;5095017;28;20304;-75
2021/09/21 10:18:19;;;;;;;;;;;17.70;74.20;;;;;;5095064;28;19904;-74
2021/09/21 10:20:45;;;;;;;;;;;17.90;71.60;;;;;;5094996;28;19904;-74
2021/09/21 10:23:11;;;;;;;;;;;18.00;71.10;;;;;;5094789;28;20361;-74
2021/09/21 10:25:39;;;;;;;;;;;18.10;68.30;;;;;;5094972;28;19908;-74
2021/09/21 10:28:30;;;;;;;;;;;18.30;67.90;;;;;;5076583;28;20290;-72
2021/09/21 10:30:58;;;;;;;;;;;18.40;67.90;;;;;;5072751;28;20062;-77
2021/09/21 10:33:24;;;;;;;;;;;18.50;65.70;;;;;;5094774;28;19904;-74
2021/09/21 10:35:50;;;;;;;;;;;18.70;66.40;;;;;;5095211;28;19908;-75
2021/09/21 10:38:17;;;;;;;;;;;18.70;65.20;;;;;;5076421;28;19911;-74
2021/09/21 10:40:44;;;;;;;;;;;19.00;67.90;;;;;;5076490;28;19904;-74
2021/09/21 10:43:24;;;;;;;;;;;19.20;70.10;;;;;;5094912;28;19904;-77
2021/09/21 10:45:50;;;;;;;;;;;19.10;64.50;;;;;;5094618;28;19910;-74
2021/09/21 10:48:21;;;;;;;;;;;19.30;63.30;;;;;;5094499;28;20397;-75
2021/09/21 10:50:57;;;;;;;;;;;19.30;61.00;;;;;;5077055;28;19934;-73
2021/09/21 10:53:23;;;;;;;;;;;19.30;59.80;;;;;;5094649;28;20037;-74
2021/09/21 10:55:58;;;;;;;;;;;19.50;63.60;;;;;;5076318;28;19915;-73
2021/09/21 10:58:23;;;;;;;;;;;19.60;60.80;;;;;;5094357;28;19940;-74
2021/09/21 11:00:48;;;;;;;;;;;19.80;63.40;;;;;;5094327;28;19908;-76
2021/09/21 11:03:14;;;;;;;;;;;19.90;59.20;;;;;;5094196;28;19911;-72
2021/09/21 11:05:41;;;;;;;;;;;19.90;57.50;;;;;;5076159;28;20006;-73
2021/09/21 11:08:08;;;;;;;;;;;20.10;56.60;;;;;;5076119;28;19908;-73
2021/09/21 11:10:35;;;;;;;;;;;19.90;56.40;;;;;;5076150;28;19995;-73
2021/09/21 11:13:00;;;;;;;;;;;20.00;55.10;;;;;;5094353;28;20277;-73
2021/09/21 11:15:27;;;;;;;;;;;20.00;54.80;;;;;;5093979;28;19915;-73
2021/09/21 11:18:06;;;;;;;;;;;20.10;55.40;;;;;;5095136;28;19904;-73
2021/09/21 11:20:32;;;;;;;;;;;20.20;55.70;;;;;;5080675;28;19995;-73
2021/09/21 11:23:01;;;;;;;;;;;20.10;54.80;;;;;;5098456;28;19958;-73
2021/09/21 11:25:27;;;;;;;;;;;19.90;54.90;;;;;;5080981;28;19908;-73
2021/09/21 11:27:56;;;;;;;;;;;20.00;58.00;;;;;;5099269;28;19911;-73
2021/09/21 11:30:22;;;;;;;;;;;20.00;59.40;;;;;;5098841;28;19911;-73
2021/09/21 11:32:47;;;;;;;;;;;20.00;57.70;;;;;;5080889;28;19904;-73
2021/09/21 11:35:14;;;;;;;;;;;19.90;56.00;;;;;;5098506;28;19908;-73
2021/09/21 11:37:40;;;;;;;;;;;19.90;55.60;;;;;;5098541;28;19904;-73
2021/09/21 11:40:06;;;;;;;;;;;20.00;57.80;;;;;;5098321;28;19908;-73
2021/09/21 11:42:33;;;;;;;;;;;20.00;59.20;;;;;;5098317;28;19904;-73
2021/09/21 11:44:59;;;;;;;;;;;19.70;57.70;;;;;;5098690;28;19905;-73
2021/09/21 11:47:33;;;;;;;;;;;19.70;57.20;;;;;;5098607;28;19904;-74
2021/09/21 11:49:58;;;;;;;;;;;19.70;60.90;;;;;;5098123;28;20257;-74
2021/09/21 11:52:24;;;;;;;;;;;19.80;60.50;;;;;;5098478;28;19912;-74
2021/09/21 11:54:50;;;;;;;;;;;20.00;57.50;;;;;;5098683;28;19904;-74
2021/09/21 11:57:15;;;;;;;;;;;20.10;60.00;;;;;;5098497;28;20315;-74
2021/09/21 11:59:41;;;;;;;;;;;20.30;60.40;;;;;;5080006;28;20357;-73
2021/09/21 12:02:07;;;;;;;;;;;20.30;56.00;;;;;;5098028;28;19939;-73
2021/09/21 12:04:32;;;;;;;;;;;20.40;56.80;;;;;;5098203;28;19904;-73
2021/09/21 12:06:58;;;;;;;;;;;20.60;55.80;;;;;;5098480;28;20292;-74
2021/09/21 12:09:23;;;;;;;;;;;20.80;57.70;;;;;;5098183;28;19962;-74
2021/09/21 12:11:49;;;;;;;;;;;21.10;55.90;;;;;;5080875;28;19912;-73
2021/09/21 12:14:17;;;;;;;;;;;21.20;53.70;;;;;;5098826;28;19953;-74
2021/09/21 12:16:50;;;;;;;;;;;21.20;50.90;;;;;;5098619;28;19908;-74
2021/09/21 12:19:16;;;;;;;;;;;21.10;52.60;;;;;;5097353;28;20259;-73
2021/09/21 12:21:42;;;;;;;;;;;21.20;51.90;;;;;;5096644;28;19929;-74
2021/09/21 12:24:08;;;;;;;;;;;21.50;53.60;;;;;;5094612;28;20352;-74
2021/09/21 12:26:34;;;;;;;;;;;21.60;52.50;;;;;;5075348;28;19904;-73
2021/09/21 12:29:00;;;;;;;;;;;21.60;52.00;;;;;;5093584;28;19908;-74
2021/09/21 12:31:27;;;;;;;;;;;21.70;51.00;;;;;;5093268;28;19999;-73
2021/09/21 12:33:53;;;;;;;;;;;21.50;53.10;;;;;;5093533;28;19999;-74
2021/09/21 12:36:23;;;;;;;;;;;21.60;51.90;;;;;;5093104;28;19912;-74
2021/09/21 12:39:05;;;;;;;;;;;21.50;56.00;;;;;;5093204;28;19911;-74
2021/09/21 12:41:35;;;;;;;;;;;21.60;54.40;;;;;;5093351;28;19904;-74
2021/09/21 12:44:05;;;;;;;;;;;21.70;51.90;;;;;;5074960;28;19948;-74
2021/09/21 12:46:31;;;;;;;;;;;21.80;52.80;;;;;;5093163;28;19987;-73
2021/09/21 12:48:59;;;;;;;;;;;21.60;52.30;;;;;;5093130;28;19954;-74
2021/09/21 12:51:36;;;;;;;;;;;21.40;52.70;;;;;;5094882;28;19965;-75
2021/09/21 12:54:02;;;;;;;;;;;21.60;57.00;;;;;;5078992;28;19904;-75
2021/09/21 12:56:29;;;;;;;;;;;21.70;56.10;;;;;;5096688;28;19914;-75
2021/09/21 12:59:01;;;;;;;;;;;21.80;56.10;;;;;;5096465;28;19908;-74
2021/09/21 13:01:27;;;;;;;;;;;22.00;56.10;;;;;;5078496;28;19908;-75
2021/09/21 13:03:52;;;;;;;;;;;21.90;55.30;;;;;;5096718;28;20262;-73
2021/09/21 13:06:18;;;;;;;;;;;21.80;54.70;;;;;;5096450;28;20341;-76
2021/09/21 13:08:44;;;;;;;;;;;21.80;55.40;;;;;;5092252;22;20361;-74
2021/09/21 13:11:09;;;;;;;;;;;23.00;54.60;;;;;;5077793;28;20357;-75
2021/09/21 13:13:35;;;;;;;;;;;22.20;52.60;;;;;;5096142;28;19911;-74
2021/09/21 13:16:02;;;;;;;;;;;22.10;53.60;;;;;;5096145;28;19961;-74
2021/09/21 13:18:27;;;;;;;;;;;22.20;54.40;;;;;;5078122;28;19904;-73
2021/09/21 13:20:53;;;;;;;;;;;22.20;51.90;;;;;;5078178;28;20436;-74
2021/09/21 13:23:19;;;;;;;;;;;22.30;52.00;;;;;;5096065;28;19926;-74
2021/09/21 13:25:44;;;;;;;;;;;22.50;53.90;;;;;;5096064;28;19904;-75
2021/09/21 13:28:11;;;;;;;;;;;22.60;52.70;;;;;;5096128;28;19904;-74
2021/09/21 13:30:37;;;;;;;;;;;22.60;56.10;;;;;;5096068;28;20357;-74
2021/09/21 13:33:02;;;;;;;;;;;22.70;50.70;;;;;;5077820;28;19954;-75
2021/09/21 13:35:28;;;;;;;;;;;22.80;52.40;;;;;;5095745;28;20424;-74
2021/09/21 13:37:53;;;;;;;;;;;23.00;51.20;;;;;;5077816;28;19992;-76
2021/09/21 13:40:19;;;;;;;;;;;22.90;51.30;;;;;;5095973;28;19918;-75
2021/09/21 13:42:52;;;;;;;;;;;22.90;51.90;;;;;;5095660;28;19904;-76
2021/09/21 13:45:19;;;;;;;;;;;22.90;56.00;;;;;;5095648;28;19918;-76
2021/09/21 13:47:45;;;;;;;;;;;22.90;51.90;;;;;;5095578;28;20316;-75
2021/09/21 13:50:14;;;;;;;;;;;22.80;53.30;;;;;;5095522;28;19912;-75
2021/09/21 13:52:40;;;;;;;;;;;23.10;53.10;;;;;;5095475;28;20302;-75
2021/09/21 13:55:06;;;;;;;;;;;23.30;55.20;;;;;;5095535;28;19991;-73
2021/09/21 13:57:32;;;;;;;;;;;23.40;53.40;;;;;;5095432;28;19911;-74
2021/09/21 13:59:58;;;;;;;;;;;23.30;49.80;;;;;;5095448;28;19904;-74
2021/09/21 14:02:23;;;;;;;;;;;23.40;53.90;;;;;;5095183;28;19904;-74
2021/09/21 14:04:49;;;;;;;;;;;23.50;52.10;;;;;;5095291;28;19929;-77
2021/09/21 14:07:15;;;;;;;;;;;23.60;48.90;;;;;;5095533;28;19904;-77
2021/09/21 14:09:41;;;;;;;;;;;23.30;50.80;;;;;;5095574;28;20373;-77
2021/09/21 14:12:07;;;;;;;;;;;23.40;50.10;;;;;;5078233;22;19920;-75
2021/09/21 14:14:35;;;;;;;;;;;23.40;51.50;;;;;;5074827;28;19911;-73
2021/09/21 14:17:01;;;;;;;;;;;23.10;51.80;;;;;;5074929;28;20044;-76
2021/09/21 14:19:29;;;;;;;;;;;23.50;55.30;;;;;;5075047;28;20385;-77
2021/09/21 14:21:56;;;;;;;;;;;23.70;55.50;;;;;;5057002;28;19958;-75
2021/09/21 14:24:27;;;;;;;;;;;23.80;50.00;;;;;;5056690;28;19998;-76
2021/09/21 14:26:52;;;;;;;;;;;24.10;49.60;;;;;;5075053;28;19957;-75